Time;durP1;ratioP1;P1;durP2;ratioP2;P2;SDS_P1;SDS_P2;PMS_P1;PMS_P2;Temp;Humidity;BMP_temperature;BMP_pressure;BME280_temperature;BME280_humidity;BME280_pressure;Samples;Min_cycle;Max_cycle;Signal;HPM_P1;HPM_P2
2022/01/24 00:01:53;;;;;;;8.10;4.95;;;5.40;99.90;;;;;;5096199;28;20048;-71
2022/01/24 00:04:21;;;;;;;7.43;5.35;;;5.40;99.90;;;;;;5101313;28;20168;-71
2022/01/24 00:06:47;;;;;;;8.35;5.75;;;5.80;99.90;;;;;;5081760;28;20032;-71
2022/01/24 00:09:13;;;;;;;6.75;5.00;;;5.40;99.90;;;;;;5100298;28;20059;-71
2022/01/24 00:27:21;;;;;;;11.23;7.53;;;5.30;99.90;;;;;;5094052;28;20533;-71
2022/01/24 00:29:47;;;;;;;11.18;7.05;;;5.30;99.90;;;;;;5091689;28;20705;-71
2022/01/24 00:32:13;;;;;;;12.88;7.82;;;5.30;99.90;;;;;;5094022;28;20036;-71
2022/01/24 00:34:40;;;;;;;12.27;7.50;;;5.70;99.90;;;;;;5096196;28;20048;-71
2022/01/24 00:37:06;;;;;;;9.45;7.15;;;5.30;99.90;;;;;;5089663;28;20115;-71
2022/01/24 00:39:32;;;;;;;12.23;7.25;;;5.30;99.90;;;;;;5097941;28;20062;-70
2022/01/24 00:42:20;;;;;;;14.02;7.10;;;5.30;99.90;;;;;;5095627;28;20043;-70
2022/01/24 00:45:06;;;;;;;11.55;7.35;;;5.30;99.90;;;;;;5101911;28;20042;-70
2022/01/24 00:55:37;;;;;;;11.40;7.55;;;5.20;99.90;;;;;;5101007;28;20039;-71
2022/01/24 00:58:03;;;;;;;14.40;8.27;;;5.20;99.90;;;;;;5102054;28;20118;-71
2022/01/24 01:00:28;;;;;;;12.35;7.80;;;5.20;99.90;;;;;;5099693;28;20127;-71
2022/01/24 01:02:54;;;;;;;13.05;7.95;;;5.20;99.90;;;;;;5105183;28;20471;-71
2022/01/24 01:05:40;;;;;;;11.75;8.00;;;5.20;99.90;;;;;;5088142;28;20043;-71
2022/01/24 01:18:46;;;;;;;11.52;8.15;;;5.20;99.90;;;;;;5102221;28;20046;-71
2022/01/24 01:21:14;;;;;;;15.88;9.57;;;5.20;99.90;;;;;;5100441;28;20035;-71
2022/01/24 01:23:49;;;;;;;14.98;10.15;;;5.20;99.90;;;;;;5102871;28;20079;-71
2022/01/24 01:26:23;;;;;;;14.05;9.73;;;5.20;99.90;;;;;;5097751;28;20040;-71
2022/01/24 01:28:54;;;;;;;14.55;10.00;;;5.20;99.90;;;;;;5089883;28;20419;-71
2022/01/24 01:31:30;;;;;;;12.15;8.35;;;5.20;99.90;;;;;;5102846;28;20055;-71
2022/01/24 01:37:39;;;;;;;11.90;8.60;;;5.20;99.90;;;;;;5072196;28;20048;-71
2022/01/24 01:55:40;;;;;;;14.95;10.02;;;5.20;99.90;;;;;;5105746;28;20043;-71
2022/01/24 01:58:12;;;;;;;14.00;8.93;;;5.10;99.90;;;;;;5098039;28;20724;-71
2022/01/24 02:00:43;;;;;;;13.98;9.00;;;5.20;99.90;;;;;;5103996;28;20051;-71
2022/01/24 02:03:09;;;;;;;15.82;9.82;;;5.20;99.90;;;;;;5104066;28;20111;-71
2022/01/24 02:05:36;;;;;;;16.13;9.93;;;5.10;99.90;;;;;;5105169;28;20504;-71
2022/01/24 02:08:03;;;;;;;14.93;9.13;;;5.10;99.90;;;;;;5102542;28;20028;-71
2022/01/24 02:10:29;;;;;;;13.93;9.32;;;5.10;99.90;;;;;;5094653;28;20047;-71
2022/01/24 02:12:56;;;;;;;13.55;10.10;;;5.10;99.90;;;;;;5104769;28;20048;-71
2022/01/24 02:25:55;;;;;;;12.02;8.95;;;5.00;99.90;;;;;;5105706;28;20052;-71
2022/01/24 02:28:23;;;;;;;13.50;8.93;;;5.10;99.90;;;;;;5103261;28;20066;-71
2022/01/24 02:33:17;;;;;;;12.20;9.18;;;5.10;99.90;;;;;;5092801;28;20096;-71
2022/01/24 02:35:44;;;;;;;13.88;9.38;;;5.50;99.90;;;;;;5081026;28;20032;-71
2022/01/24 02:49:13;;;;;;;14.25;9.73;;;5.10;99.90;;;;;;5096645;28;20036;-71
2022/01/24 02:51:48;;;;;;;13.80;9.48;;;5.40;99.90;;;;;;5083193;28;20126;-72
2022/01/24 02:54:26;;;;;;;13.73;9.07;;;5.10;99.90;;;;;;5100529;28;20031;-71
2022/01/24 02:56:52;;;;;;;15.48;10.45;;;5.10;99.90;;;;;;5096425;28;20039;-71
2022/01/24 02:59:18;;;;;;;15.77;10.18;;;5.10;99.90;;;;;;5082455;28;20044;-71
2022/01/24 03:01:45;;;;;;;13.18;9.30;;;5.10;99.90;;;;;;5080637;28;20562;-71
2022/01/24 03:04:10;;;;;;;13.15;9.05;;;5.10;99.90;;;;;;5098474;28;20066;-71
2022/01/24 03:06:36;;;;;;;16.35;10.50;;;5.10;99.90;;;;;;5083514;28;20458;-71
2022/01/24 03:09:06;;;;;;;14.85;9.90;;;5.10;99.90;;;;;;5099321;28;20044;-71
2022/01/24 03:14:19;;;;;;;16.65;10.20;;;5.00;99.90;;;;;;5098607;28;20050;-71
2022/01/24 03:16:45;;;;;;;16.55;10.60;;;5.00;99.90;;;;;;5097668;28;20036;-71
2022/01/24 03:19:10;;;;;;;14.23;9.70;;;5.10;99.90;;;;;;5094332;28;20062;-71
2022/01/24 03:21:36;;;;;;;17.10;10.35;;;5.10;99.90;;;;;;5097718;28;20381;-71
2022/01/24 03:24:02;;;;;;;16.45;11.30;;;5.00;99.90;;;;;;5104110;28;20494;-71
2022/01/24 03:26:28;;;;;;;16.58;11.05;;;5.00;99.90;;;;;;5093130;28;20075;-71
2022/01/24 03:28:53;;;;;;;15.98;11.45;;;5.00;99.90;;;;;;5082759;28;20461;-71
2022/01/24 03:31:19;;;;;;;17.27;11.35;;;5.30;99.90;;;;;;5062489;28;20051;-71
2022/01/24 03:33:45;;;;;;;17.75;11.45;;;5.00;99.90;;;;;;5091762;28;20035;-71
2022/01/24 03:36:11;;;;;;;17.52;13.20;;;5.00;99.90;;;;;;5097990;28;20046;-71
2022/01/24 03:38:37;;;;;;;16.63;11.20;;;5.10;99.90;;;;;;5094583;28;20031;-71
2022/01/24 03:41:03;;;;;;;17.73;11.82;;;5.40;99.90;;;;;;5099496;28;20097;-71
2022/01/24 03:43:29;;;;;;;17.20;11.90;;;5.00;99.90;;;;;;5095272;28;20044;-71
2022/01/24 03:48:44;;;;;;;19.98;12.60;;;5.00;99.90;;;;;;5092889;28;20078;-71
2022/01/24 03:51:11;;;;;;;18.50;12.23;;;5.00;99.90;;;;;;5098188;28;20035;-71
2022/01/24 03:53:38;;;;;;;19.08;13.00;;;5.00;99.90;;;;;;5100553;28;20046;-71
2022/01/24 03:56:05;;;;;;;18.15;12.57;;;5.00;99.90;;;;;;5095098;28;20039;-71
2022/01/24 03:58:31;;;;;;;19.67;13.27;;;4.90;99.90;;;;;;5090040;28;20042;-71
2022/01/24 04:00:58;;;;;;;18.50;13.02;;;5.00;99.90;;;;;;5098127;28;20391;-71
2022/01/24 04:03:24;;;;;;;20.30;13.10;;;5.70;99.90;;;;;;5096372;28;20454;-71
2022/01/24 04:05:49;;;;;;;21.70;13.65;;;4.90;99.90;;;;;;5101836;28;20467;-71
2022/01/24 04:08:16;;;;;;;20.20;13.23;;;5.00;99.90;;;;;;5103503;28;20079;-71
2022/01/24 04:10:45;;;;;;;19.30;13.90;;;5.00;99.90;;;;;;5099473;28;20031;-71
2022/01/24 04:21:45;;;;;;;19.30;13.13;;;5.00;99.90;;;;;;5106542;28;20395;-71
2022/01/24 04:24:17;;;;;;;20.90;14.48;;;5.30;99.90;;;;;;5105135;28;20039;-71
2022/01/24 04:26:43;;;;;;;18.02;13.13;;;5.00;99.90;;;;;;5103473;28;20047;-71
2022/01/24 04:29:08;;;;;;;20.80;13.80;;;4.90;99.90;;;;;;5080945;28;20035;-71
2022/01/24 04:31:35;;;;;;;18.73;13.32;;;4.90;99.90;;;;;;5096484;28;20047;-71
2022/01/24 04:34:01;;;;;;;21.08;14.13;;;5.00;99.90;;;;;;5085264;28;20058;-71
2022/01/24 04:36:27;;;;;;;21.90;14.88;;;5.00;99.90;;;;;;5102353;28;20108;-71
2022/01/24 04:38:54;;;;;;;19.88;14.00;;;4.90;99.90;;;;;;5104743;28;20043;-72
2022/01/24 04:41:33;;;;;;;22.10;14.48;;;4.90;99.90;;;;;;5097687;28;20047;-71
2022/01/24 04:44:12;;;;;;;20.27;14.00;;;4.90;99.90;;;;;;5107720;28;20043;-71
2022/01/24 04:54:41;;;;;;;20.02;13.05;;;4.90;99.90;;;;;;5088774;28;20091;-71
2022/01/24 04:57:08;;;;;;;19.15;13.63;;;4.90;99.90;;;;;;5106131;28;20146;-71
2022/01/24 04:59:35;;;;;;;17.73;12.82;;;4.90;99.90;;;;;;5087086;28;20039;-71
2022/01/24 05:02:01;;;;;;;20.58;14.23;;;4.90;99.90;;;;;;5103832;28;20036;-71
2022/01/24 05:04:27;;;;;;;19.30;12.85;;;4.90;99.90;;;;;;5102293;28;20051;-71
2022/01/24 05:06:53;;;;;;;20.77;13.48;;;5.50;99.90;;;;;;5104874;28;20044;-71
2022/01/24 05:09:20;;;;;;;18.83;13.05;;;4.90;99.90;;;;;;5102090;28;20040;-71
2022/01/24 05:12:00;;;;;;;17.83;12.32;;;4.90;99.90;;;;;;5102198;28;20051;-71
2022/01/24 05:25:22;;;;;;;17.92;11.68;;;4.90;99.90;;;;;;5102036;28;20078;-71
2022/01/24 05:27:48;;;;;;;19.88;13.13;;;4.90;99.90;;;;;;5084798;28;20079;-71
2022/01/24 05:30:16;;;;;;;17.98;11.52;;;4.90;99.90;;;;;;5103837;27;20047;-71
2022/01/24 05:32:43;;;;;;;20.40;12.70;;;4.90;99.90;;;;;;5103009;27;20054;-71
2022/01/24 05:35:09;;;;;;;17.95;11.82;;;4.90;99.90;;;;;;5101029;27;20043;-71
2022/01/24 05:37:34;;;;;;;16.40;10.98;;;4.90;99.90;;;;;;5106141;27;20435;-71
2022/01/24 05:40:01;;;;;;;16.98;12.23;;;5.40;99.90;;;;;;5104161;27;20038;-71
2022/01/24 05:42:26;;;;;;;15.63;11.27;;;4.90;99.90;;;;;;5101177;27;20545;-71
2022/01/24 05:44:52;;;;;;;17.95;11.30;;;5.30;99.90;;;;;;5102287;27;20032;-71
2022/01/24 05:47:19;;;;;;;16.52;11.27;;;4.90;99.90;;;;;;5104630;27;20039;-71
2022/01/24 05:49:45;;;;;;;15.77;10.77;;;4.90;99.90;;;;;;5085693;27;20036;-72
2022/01/24 05:52:11;;;;;;;16.38;11.25;;;4.90;99.90;;;;;;5092864;27;20042;-72
2022/01/24 05:54:41;;;;;;;17.90;12.15;;;4.90;99.90;;;;;;5102486;27;20043;-70
2022/01/24 05:57:08;;;;;;;17.77;11.77;;;4.90;99.90;;;;;;5085017;27;20372;-71
2022/01/24 05:59:34;;;;;;;19.48;12.27;;;4.80;99.90;;;;;;5098717;27;20048;-71
2022/01/24 06:02:00;;;;;;;16.92;11.23;;;4.80;99.90;;;;;;5104064;28;20468;-71
2022/01/24 06:04:26;;;;;;;16.48;11.25;;;4.90;99.90;;;;;;5091900;27;20133;-71
2022/01/24 06:06:51;;;;;;;16.73;11.82;;;4.90;99.90;;;;;;5084440;28;20035;-71
2022/01/24 06:09:17;;;;;;;19.75;11.77;;;4.90;99.90;;;;;;5103721;27;20071;-71
2022/01/24 06:11:43;;;;;;;18.45;11.80;;;4.90;99.90;;;;;;5103317;27;20124;-72
2022/01/24 06:14:10;;;;;;;14.95;11.23;;;4.90;99.90;;;;;;5096528;27;20168;-71
2022/01/24 06:16:36;;;;;;;18.05;12.18;;;4.90;99.90;;;;;;5099458;27;20074;-71
2022/01/24 06:19:02;;;;;;;15.73;11.32;;;4.90;99.90;;;;;;5099812;27;20039;-71
2022/01/24 06:21:28;;;;;;;17.15;11.65;;;4.90;99.90;;;;;;5096676;27;20050;-70
2022/01/24 06:23:54;;;;;;;16.88;11.95;;;4.90;99.90;;;;;;5106600;27;20046;-71
2022/01/24 06:26:19;;;;;;;19.13;11.70;;;4.90;99.90;;;;;;5094513;27;20039;-71
2022/01/24 06:28:45;;;;;;;18.30;11.50;;;4.90;99.90;;;;;;5097271;27;20051;-71
2022/01/24 06:31:11;;;;;;;14.45;10.93;;;4.80;99.90;;;;;;5077152;27;20057;-71
2022/01/24 06:33:37;;;;;;;16.92;10.38;;;4.90;99.90;;;;;;5102408;27;20035;-71
2022/01/24 06:36:03;;;;;;;17.48;11.15;;;4.90;99.90;;;;;;5094486;27;20390;-71
2022/01/24 06:38:29;;;;;;;15.48;10.35;;;4.90;99.90;;;;;;5102514;27;20047;-71
2022/01/24 06:40:55;;;;;;;13.98;10.23;;;4.90;99.90;;;;;;5095457;28;20036;-71
2022/01/24 06:43:21;;;;;;;15.52;11.23;;;4.90;99.90;;;;;;5105101;27;20113;-71
2022/01/24 06:45:47;;;;;;;15.30;10.63;;;5.60;99.90;;;;;;5101399;27;20046;-72
2022/01/24 06:48:12;;;;;;;15.07;10.32;;;4.90;99.90;;;;;;5095730;27;20061;-71
2022/01/24 06:50:38;;;;;;;15.63;10.60;;;4.90;99.90;;;;;;5108983;27;20076;-71
2022/01/24 06:53:04;;;;;;;14.30;10.25;;;5.30;99.90;;;;;;5097170;27;20045;-70
2022/01/24 06:55:30;;;;;;;15.60;10.30;;;4.90;99.90;;;;;;5091463;27;20043;-71
2022/01/24 06:57:56;;;;;;;14.77;10.57;;;4.90;99.90;;;;;;5089602;28;20082;-71
2022/01/24 07:00:25;;;;;;;16.42;11.00;;;4.90;99.90;;;;;;5102642;27;21588;-71
2022/01/24 07:02:53;;;;;;;15.05;10.40;;;5.60;99.90;;;;;;5088293;28;20043;-70
2022/01/24 07:05:19;;;;;;;18.45;11.55;;;4.90;99.90;;;;;;5097670;27;20042;-70
2022/01/24 07:07:44;;;;;;;15.88;10.55;;;5.40;99.90;;;;;;5101294;27;20466;-71
2022/01/24 07:10:10;;;;;;;17.00;11.68;;;4.80;99.90;;;;;;5091388;27;20095;-70
2022/01/24 07:12:36;;;;;;;15.63;11.52;;;4.90;99.90;;;;;;5081483;28;20070;-70
2022/01/24 07:15:08;;;;;;;23.70;15.02;;;4.80;99.90;;;;;;5080777;27;20031;-71
2022/01/24 07:17:58;;;;;;;23.45;15.85;;;4.90;99.90;;;;;;5113948;27;20163;-70
2022/01/24 07:20:20;;;;;;;23.92;15.68;;;4.90;99.90;;;;;;5084706;28;20495;-71
2022/01/24 07:22:46;;;;;;;26.60;15.32;;;5.10;99.90;;;;;;5101722;28;20402;-71
2022/01/24 07:25:12;;;;;;;21.17;14.25;;;4.90;99.90;;;;;;5107487;27;20043;-70
2022/01/24 07:27:37;;;;;;;21.02;13.57;;;4.90;99.90;;;;;;5096982;27;20046;-70
2022/01/24 07:30:04;;;;;;;21.13;13.00;;;4.90;99.90;;;;;;5095947;27;20540;-70
2022/01/24 07:32:30;;;;;;;20.10;13.45;;;4.80;99.90;;;;;;5108171;28;20050;-70
2022/01/24 07:34:57;;;;;;;21.35;13.70;;;4.80;99.90;;;;;;5101621;28;20043;-69
2022/01/24 07:37:24;;;;;;;20.95;13.55;;;5.00;99.90;;;;;;5087474;28;20531;-70
2022/01/24 07:39:51;;;;;;;20.13;13.05;;;4.90;99.90;;;;;;5103059;28;20552;-71
2022/01/24 07:42:28;;;;;;;21.25;13.88;;;4.80;99.90;;;;;;5102819;28;20043;-71
2022/01/24 07:44:54;;;;;;;22.65;14.82;;;4.90;99.90;;;;;;5100239;27;20039;-71
2022/01/24 07:47:19;;;;;;;25.75;15.48;;;4.90;99.90;;;;;;5079440;27;20560;-71
2022/01/24 07:49:45;;;;;;;25.60;15.43;;;5.30;99.90;;;;;;5095855;28;20040;-71
2022/01/24 07:52:11;;;;;;;22.58;15.13;;;4.90;99.90;;;;;;5096698;27;20039;-71
2022/01/24 07:54:36;;;;;;;23.60;15.95;;;4.90;99.90;;;;;;5081906;27;20030;-71
2022/01/24 07:57:02;;;;;;;25.55;16.17;;;4.90;99.90;;;;;;5087906;27;20073;-71
2022/01/24 07:59:28;;;;;;;26.15;17.17;;;4.90;99.90;;;;;;5105312;27;20130;-71
2022/01/24 08:01:54;;;;;;;30.33;17.92;;;4.90;99.90;;;;;;5097304;27;20032;-71
2022/01/24 08:04:19;;;;;;;28.88;17.77;;;4.90;99.90;;;;;;5111412;27;20110;-71
2022/01/24 08:06:47;;;;;;;26.83;17.33;;;4.90;99.90;;;;;;5095073;27;20077;-71
2022/01/24 08:09:13;;;;;;;30.50;18.58;;;4.90;99.90;;;;;;5120302;27;20047;-70
2022/01/24 08:11:39;;;;;;;34.38;19.48;;;4.90;99.90;;;;;;5100568;27;20078;-70
2022/01/24 08:14:05;;;;;;;29.05;17.90;;;4.90;99.90;;;;;;5109724;27;20102;-70
2022/01/24 08:16:30;;;;;;;31.05;20.00;;;4.90;99.90;;;;;;5108438;27;20092;-69
2022/01/24 08:18:57;;;;;;;28.75;19.05;;;4.90;99.90;;;;;;5102093;27;20035;-70
2022/01/24 08:21:23;;;;;;;33.22;20.63;;;4.90;99.90;;;;;;5098532;27;20388;-70
2022/01/24 08:23:50;;;;;;;34.33;20.27;;;5.10;99.90;;;;;;5100271;27;20833;-70
2022/01/24 08:26:17;;;;;;;36.80;21.65;;;4.90;99.90;;;;;;5102291;27;20048;-70
2022/01/24 08:28:43;;;;;;;39.15;22.05;;;4.90;99.90;;;;;;5101217;27;20027;-71
2022/01/24 08:31:09;;;;;;;38.50;22.20;;;4.90;99.90;;;;;;5103586;27;20051;-71
2022/01/24 08:33:35;;;;;;;37.85;23.25;;;5.00;99.90;;;;;;5084972;27;20046;-71
2022/01/24 08:36:01;;;;;;;39.67;24.98;;;5.00;99.90;;;;;;5089205;27;20035;-70
2022/01/24 08:38:29;;;;;;;41.33;25.05;;;5.00;99.90;;;;;;5112002;27;20067;-70
2022/01/24 08:40:59;;;;;;;42.78;25.58;;;5.00;99.90;;;;;;5120773;27;20043;-70
2022/01/24 08:43:49;;;;;;;42.60;26.33;;;5.10;99.90;;;;;;5107256;27;20164;-70
2022/01/24 08:46:16;;;;;;;44.58;26.88;;;5.00;99.90;;;;;;5095989;27;20051;-70
2022/01/24 08:48:46;;;;;;;48.15;27.30;;;5.00;99.90;;;;;;5102076;27;20407;-70
2022/01/24 08:51:12;;;;;;;48.92;27.58;;;5.00;99.90;;;;;;5088068;27;20050;-70
2022/01/24 08:53:37;;;;;;;51.58;29.75;;;5.10;99.90;;;;;;5107359;27;20032;-71
2022/01/24 08:56:06;;;;;;;51.95;29.98;;;5.00;99.90;;;;;;5110222;27;20039;-70
2022/01/24 08:58:33;;;;;;;57.08;32.22;;;5.50;99.90;;;;;;5108535;27;20031;-70
2022/01/24 09:00:59;;;;;;;54.63;32.78;;;5.10;99.90;;;;;;5125224;27;20078;-70
2022/01/24 09:03:29;;;;;;;53.78;31.95;;;5.10;99.90;;;;;;5103392;27;20082;-70
2022/01/24 09:05:57;;;;;;;59.28;34.25;;;5.10;99.90;;;;;;5080662;27;20039;-70
2022/01/24 09:08:23;;;;;;;60.60;34.72;;;5.10;99.90;;;;;;5094282;27;20088;-69
2022/01/24 09:10:51;;;;;;;57.35;33.65;;;5.20;99.90;;;;;;5105117;27;20123;-70
2022/01/24 09:13:19;;;;;;;61.55;35.25;;;5.20;99.90;;;;;;5096050;27;20093;-70
2022/01/24 09:15:45;;;;;;;66.60;38.03;;;5.20;99.90;;;;;;5106235;27;20035;-70
2022/01/24 09:18:10;;;;;;;61.42;36.38;;;5.20;99.90;;;;;;5099129;27;20046;-70
2022/01/24 09:20:38;;;;;;;60.30;34.90;;;5.20;99.90;;;;;;5090772;27;20073;-69
2022/01/24 09:23:05;;;;;;;62.55;35.38;;;5.20;99.90;;;;;;5104921;27;20088;-69
2022/01/24 09:25:31;;;;;;;71.93;38.05;;;5.20;99.90;;;;;;5101868;28;20043;-69
2022/01/24 09:27:57;;;;;;;65.93;35.67;;;5.70;99.90;;;;;;5085327;28;20096;-70
2022/01/24 09:30:24;;;;;;;66.30;36.70;;;5.60;99.90;;;;;;5096540;27;20040;-69
2022/01/24 09:32:50;;;;;;;68.22;36.90;;;5.20;99.90;;;;;;5101451;27;20589;-70
2022/01/24 09:35:17;;;;;;;68.13;36.90;;;5.20;99.90;;;;;;5080482;27;20039;-70
2022/01/24 09:37:45;;;;;;;58.30;33.72;;;5.30;99.90;;;;;;5103585;27;20039;-69
2022/01/24 09:40:13;;;;;;;59.63;34.17;;;5.30;99.90;;;;;;5105246;27;20159;-69
2022/01/24 09:42:40;;;;;;;62.17;36.30;;;5.30;99.90;;;;;;5099079;27;20039;-70
2022/01/24 09:45:07;;;;;;;64.72;36.00;;;5.30;99.90;;;;;;5096989;28;20130;-70
2022/01/24 09:47:33;;;;;;;63.13;35.60;;;5.30;99.90;;;;;;5083591;27;20522;-70
2022/01/24 09:49:59;;;;;;;70.97;38.83;;;5.30;99.90;;;;;;5083336;27;20526;-70
2022/01/24 09:52:25;;;;;;;60.72;35.33;;;5.30;99.90;;;;;;5102561;27;20039;-70
2022/01/24 09:54:51;;;;;;;65.35;36.28;;;5.30;99.90;;;;;;5105532;27;20147;-70
2022/01/24 09:57:17;;;;;;;61.53;35.17;;;5.30;99.90;;;;;;5104367;27;20094;-69
2022/01/24 09:59:42;;;;;;;60.85;35.08;;;5.30;99.90;;;;;;5074404;27;20038;-70
2022/01/24 10:02:08;;;;;;;65.47;36.30;;;5.40;99.90;;;;;;5086226;27;20046;-72
2022/01/24 10:04:34;;;;;;;65.13;37.95;;;5.40;99.90;;;;;;5072297;27;20344;-70
2022/01/24 10:07:03;;;;;;;63.17;34.90;;;5.40;99.90;;;;;;5096993;27;20514;-70
2022/01/24 10:09:45;;;;;;;53.60;33.03;;;5.40;99.90;;;;;;5080979;27;20027;-70
2022/01/24 10:17:59;;;;;;;58.25;34.88;;;5.50;99.90;;;;;;5106554;27;20364;-70
2022/01/24 10:20:37;;;;;;;60.45;35.35;;;5.50;99.90;;;;;;5129257;27;20039;-70
2022/01/24 10:23:15;;;;;;;61.47;37.47;;;5.50;99.90;;;;;;5113058;27;20039;-70
2022/01/24 10:26:00;;;;;;;59.00;35.38;;;5.50;99.90;;;;;;5112162;27;20047;-70
2022/01/24 10:28:32;;;;;;;64.50;36.75;;;5.50;99.90;;;;;;5107679;27;20043;-70
2022/01/24 10:31:16;;;;;;;65.70;37.67;;;5.50;99.90;;;;;;5104785;27;20055;-69
2022/01/24 10:34:17;;;;;;;60.50;36.08;;;5.50;99.90;;;;;;5103725;28;20035;-71
2022/01/24 10:36:47;;;;;;;;;;;5.60;99.90;;;;;;5113280;27;20035;-71
2022/01/24 10:45:14;;;;;;;68.38;39.35;;;5.60;99.90;;;;;;5101315;28;20423;-71
2022/01/24 10:47:45;;;;;;;72.15;40.45;;;5.50;99.90;;;;;;5102761;27;20050;-70
2022/01/24 10:50:19;;;;;;;68.32;41.67;;;5.50;99.90;;;;;;5100399;27;20039;-70
2022/01/24 10:52:45;;;;;;;73.50;40.95;;;5.60;99.90;;;;;;5099674;27;20411;-70
2022/01/24 10:55:21;;;;;;;67.53;38.15;;;5.50;99.90;;;;;;5109980;27;20036;-71
2022/01/24 10:58:18;;;;;;;75.15;42.00;;;5.60;99.90;;;;;;5091205;27;20074;-72
2022/01/24 11:00:45;;;;;;;72.22;40.28;;;5.60;99.90;;;;;;5090955;27;20054;-72
2022/01/24 11:03:19;;;;;;;73.30;41.30;;;5.50;99.90;;;;;;5112298;27;20118;-72
2022/01/24 11:05:46;;;;;;;78.00;43.00;;;5.60;99.90;;;;;;5100464;28;20046;-71
2022/01/24 11:08:17;;;;;;;70.20;40.58;;;5.60;99.90;;;;;;5099956;27;20136;-70
2022/01/24 11:10:43;;;;;;;70.07;40.50;;;5.60;99.90;;;;;;5100723;27;20035;-71
2022/01/24 11:13:10;;;;;;;66.25;38.33;;;5.60;99.90;;;;;;5093812;27;20042;-71
2022/01/24 11:15:44;;;;;;;67.40;39.42;;;5.60;99.90;;;;;;5110619;27;20046;-71
2022/01/24 11:18:14;;;;;;;76.90;43.88;;;5.60;99.90;;;;;;5107764;27;20042;-71
2022/01/24 11:20:44;;;;;;;83.10;43.10;;;5.60;99.90;;;;;;5105747;27;20436;-70
2022/01/24 11:23:11;;;;;;;75.38;41.22;;;5.70;99.90;;;;;;5108179;28;20086;-71
2022/01/24 11:25:42;;;;;;;72.57;42.05;;;5.60;99.90;;;;;;5103265;27;20088;-71
2022/01/24 11:28:08;;;;;;;69.25;39.78;;;5.60;99.90;;;;;;5114744;27;20079;-71
2022/01/24 11:30:36;;;;;;;74.90;41.70;;;5.60;99.90;;;;;;5086043;27;20074;-71
2022/01/24 11:33:08;;;;;;;69.00;39.85;;;5.60;99.90;;;;;;5105799;28;20059;-71
2022/01/24 11:35:53;;;;;;;68.22;40.60;;;5.60;99.90;;;;;;5108590;28;20039;-70
2022/01/24 11:38:26;;;;;;;67.55;38.92;;;5.60;99.90;;;;;;5090392;28;20039;-71
2022/01/24 11:40:59;;;;;;;67.93;39.08;;;5.60;99.90;;;;;;5106601;28;20564;-70
2022/01/24 11:43:28;;;;;;;61.15;35.28;;;5.60;99.90;;;;;;5104726;28;20043;-70
2022/01/24 11:46:03;;;;;;;60.63;35.25;;;5.60;99.90;;;;;;5087620;28;20054;-70
2022/01/24 11:48:29;;;;;;;56.03;32.80;;;6.10;99.90;;;;;;5099370;28;20058;-70
2022/01/24 11:51:11;;;;;;;62.40;36.42;;;5.60;99.90;;;;;;5103253;28;20292;-71
2022/01/24 11:53:43;;;;;;;61.88;35.97;;;5.60;99.90;;;;;;5097960;28;20042;-71
2022/01/24 11:56:17;;;;;;;;;;;5.60;99.90;;;;;;5105325;28;20497;-70
2022/01/24 11:58:43;;;;;;;56.38;34.40;;;5.60;99.90;;;;;;5091098;28;19961;-70
2022/01/24 12:01:13;;;;;;;61.70;35.85;;;5.50;99.90;;;;;;5099289;28;20071;-69
2022/01/24 12:03:49;;;;;;;60.67;36.13;;;5.60;99.90;;;;;;5097426;28;20043;-70
2022/01/24 12:06:19;;;;;;;58.53;35.88;;;5.60;99.90;;;;;;5088916;28;20332;-71
2022/01/24 12:08:47;;;;;;;55.70;33.53;;;5.50;99.90;;;;;;5121107;27;20032;-71
2022/01/24 12:11:15;;;;;;;56.00;33.42;;;5.60;99.90;;;;;;5108068;28;20035;-71
2022/01/24 12:13:49;;;;;;;53.95;34.30;;;5.60;99.90;;;;;;5101770;28;20444;-71
2022/01/24 12:16:16;;;;;;;59.25;35.40;;;5.60;99.90;;;;;;5105185;28;20077;-71
2022/01/24 12:18:42;;;;;;;56.95;33.75;;;5.60;99.90;;;;;;5106836;28;20506;-71
2022/01/24 12:21:20;;;;;;;56.38;34.50;;;5.60;99.90;;;;;;5104669;28;20403;-71
2022/01/24 12:24:12;;;;;;;58.75;36.00;;;6.00;99.90;;;;;;5116954;28;20085;-71
2022/01/24 12:26:46;;;;;;;57.47;35.35;;;5.60;99.90;;;;;;5090257;27;20395;-72
2022/01/24 12:29:21;;;;;;;56.65;35.05;;;5.60;99.90;;;;;;5102973;28;20507;-72
2022/01/24 12:31:53;;;;;;;53.65;35.72;;;5.60;99.90;;;;;;5108848;27;20078;-71
2022/01/24 12:34:42;;;;;;;59.63;36.70;;;5.60;99.90;;;;;;5111483;27;20061;-72
2022/01/24 12:37:38;;;;;;;55.35;33.83;;;5.60;99.90;;;;;;5108497;27;20039;-72
2022/01/24 12:40:08;;;;;;;56.95;35.58;;;5.60;99.90;;;;;;5099461;27;20051;-71
2022/01/24 12:48:12;;;;;;;61.08;37.00;;;5.50;99.90;;;;;;5123253;27;20068;-71
2022/01/24 12:50:45;;;;;;;61.00;36.83;;;5.50;99.90;;;;;;5110247;27;20071;-72
2022/01/24 12:53:14;;;;;;;62.38;39.28;;;5.60;99.90;;;;;;5117366;27;20036;-72
2022/01/24 12:55:41;;;;;;;61.55;38.13;;;5.50;99.90;;;;;;5098546;27;20040;-71
2022/01/24 12:58:07;;;;;;;57.35;37.10;;;5.60;99.90;;;;;;5091299;27;20039;-71
2022/01/24 13:00:33;;;;;;;62.42;37.15;;;5.50;99.90;;;;;;5106992;27;20380;-71
2022/01/24 13:02:59;;;;;;;62.83;37.47;;;5.60;99.90;;;;;;5111675;27;20043;-71
2022/01/24 13:05:26;;;;;;;66.32;39.45;;;5.50;99.90;;;;;;5102605;27;20039;-72
2022/01/24 13:07:56;;;;;;;63.05;38.90;;;5.50;99.90;;;;;;5113109;27;20042;-71
2022/01/24 13:10:26;;;;;;;65.82;41.67;;;5.50;99.90;;;;;;5110511;27;20040;-71
2022/01/24 13:13:13;;;;;;;65.00;40.55;;;5.60;99.90;;;;;;5108455;27;20031;-71
2022/01/24 13:21:17;;;;;;;60.97;38.25;;;5.50;99.90;;;;;;5109043;27;20126;-71
2022/01/24 13:23:57;;;;;;;62.95;38.97;;;5.80;99.90;;;;;;5103484;27;20039;-71
2022/01/24 13:26:23;;;;;;;64.35;38.53;;;5.50;99.90;;;;;;5106833;27;20099;-72
2022/01/24 13:28:49;;;;;;;59.60;37.20;;;5.50;99.90;;;;;;5103570;27;20125;-72
2022/01/24 13:31:15;;;;;;;62.38;37.63;;;5.50;99.90;;;;;;5080014;27;20057;-72
2022/01/24 13:33:45;;;;;;;64.82;38.88;;;5.50;99.90;;;;;;5103526;27;20047;-72
2022/01/24 13:36:13;;;;;;;63.53;39.97;;;5.50;99.90;;;;;;5092663;27;20031;-72
2022/01/24 13:38:43;;;;;;;63.17;38.90;;;5.50;99.90;;;;;;5083217;28;20040;-72
2022/01/24 13:41:11;;;;;;;63.70;39.00;;;5.40;99.90;;;;;;5099679;27;20043;-72
2022/01/24 13:43:45;;;;;;;64.78;39.13;;;5.40;99.90;;;;;;5110740;27;20039;-72
2022/01/24 13:46:17;;;;;;;62.83;37.88;;;5.40;99.90;;;;;;5107482;27;20455;-72
2022/01/24 13:48:59;;;;;;;65.78;39.92;;;5.40;99.90;;;;;;5089691;27;20525;-72
2022/01/24 13:51:40;;;;;;;63.20;39.03;;;5.40;99.90;;;;;;5099903;27;20096;-71
2022/01/24 13:54:11;;;;;;;55.67;34.13;;;5.40;99.90;;;;;;5107239;27;20121;-71
2022/01/24 13:56:41;;;;;;;48.75;30.95;;;5.40;99.90;;;;;;5092253;27;20033;-71
2022/01/24 13:59:42;;;;;;;42.45;27.02;;;5.40;99.90;;;;;;5108044;27;20045;-72
2022/01/24 14:02:26;;;;;;;;;;;5.40;99.90;;;;;;5093480;27;20058;-72
2022/01/24 14:04:53;;;;;;;47.38;30.10;;;5.40;99.90;;;;;;5104021;27;19926;-71
2022/01/24 14:07:25;;;;;;;47.92;30.05;;;5.40;99.90;;;;;;5102407;27;20096;-71
2022/01/24 14:09:54;;;;;;;48.30;30.52;;;5.30;99.90;;;;;;5087349;27;20645;-72
2022/01/24 14:12:35;;;;;;;51.47;32.67;;;5.40;99.90;;;;;;5100826;27;20035;-71
2022/01/24 14:15:19;;;;;;;;;;;5.30;99.90;;;;;;5102595;27;20039;-71
2022/01/24 14:18:20;;;;;;;47.90;29.30;;;5.30;99.90;;;;;;5108676;27;20429;-71
2022/01/24 14:20:41;;;;;;;40.58;26.83;;;5.40;99.90;;;;;;5108472;27;20110;-71
2022/01/24 14:23:20;;;;;;;44.45;27.02;;;5.30;99.90;;;;;;5087799;27;20437;-71
2022/01/24 14:25:45;;;;;;;43.83;28.40;;;5.30;99.90;;;;;;5107676;27;20414;-72
2022/01/24 14:28:12;;;;;;;42.50;30.05;;;5.60;99.90;;;;;;5090025;27;20147;-71
2022/01/24 14:30:43;;;;;;;43.25;27.67;;;5.30;99.90;;;;;;5091842;27;20105;-71
2022/01/24 14:33:18;;;;;;;47.42;28.35;;;5.30;99.90;;;;;;5105470;27;20055;-72
2022/01/24 14:36:04;;;;;;;50.70;32.63;;;5.30;99.90;;;;;;5107678;27;20464;-71
2022/01/24 14:38:41;;;;;;;56.33;35.20;;;5.30;99.90;;;;;;5103475;27;20050;-71
2022/01/24 14:41:08;;;;;;;56.30;34.17;;;5.30;99.90;;;;;;5105454;27;20043;-71
2022/01/24 14:46:24;;;;;;;56.80;36.55;;;5.20;99.90;;;;;;5102835;27;21723;-72
2022/01/24 14:48:55;;;;;;;58.22;36.97;;;5.20;99.90;;;;;;5106895;27;20063;-72
2022/01/24 14:51:27;;;;;;;;;;;5.20;99.90;;;;;;5095033;27;20059;-73
2022/01/24 14:53:55;;;;;;;53.33;33.85;;;5.20;99.90;;;;;;5080162;27;20283;-72
2022/01/24 14:56:21;;;;;;;57.47;36.75;;;5.20;99.90;;;;;;5106335;27;20048;-72
2022/01/24 14:58:47;;;;;;;55.75;36.47;;;5.20;99.90;;;;;;5093213;27;20031;-72
2022/01/24 15:01:14;;;;;;;55.58;35.75;;;5.20;99.90;;;;;;5108332;27;20043;-72
2022/01/24 15:03:41;;;;;;;53.30;33.70;;;5.20;99.90;;;;;;5088843;27;20039;-71
2022/01/24 15:06:08;;;;;;;57.97;35.42;;;5.20;99.90;;;;;;5108213;27;20043;-72
2022/01/24 15:08:35;;;;;;;52.67;34.38;;;5.10;99.90;;;;;;5091377;27;20125;-72